Time;durP1;ratioP1;P1;durP2;ratioP2;P2;SDS_P1;SDS_P2;PMS_P1;PMS_P2;Temp;Humidity;BMP_temperature;BMP_pressure;BME280_temperature;BME280_humidity;BME280_pressure;Samples;Min_cycle;Max_cycle;Signal;HPM_P1;HPM_P2
2021/09/29 00:02:18;;;;;;;18.65;10.45;;;13.50;99.90;;;;;;5013350;28;20025;-72
2021/09/29 00:04:44;;;;;;;17.02;10.27;;;13.60;99.90;;;;;;5012894;28;20029;-71
2021/09/29 00:07:09;;;;;;;12.18;10.55;;;13.60;99.90;;;;;;5013441;28;20382;-71
2021/09/29 00:09:36;;;;;;;16.88;11.23;;;13.60;99.90;;;;;;5013022;28;20037;-71
2021/09/29 00:12:02;;;;;;;15.23;10.57;;;13.70;99.90;;;;;;5013226;28;20057;-71
2021/09/29 00:14:27;;;;;;;12.73;10.02;;;13.60;99.90;;;;;;5012653;28;20109;-71
2021/09/29 00:16:53;;;;;;;10.27;9.23;;;13.60;99.90;;;;;;5012798;28;20795;-72
2021/09/29 00:19:19;;;;;;;10.48;8.45;;;13.40;99.90;;;;;;5012686;28;20052;-72
2021/09/29 00:21:45;;;;;;;15.18;10.63;;;13.30;99.90;;;;;;5012972;28;20025;-72
2021/09/29 00:24:11;;;;;;;12.00;9.82;;;13.20;99.90;;;;;;5011403;28;20388;-72
2021/09/29 00:26:36;;;;;;;17.13;10.70;;;13.40;99.90;;;;;;5012301;28;20026;-71
2021/09/29 00:29:02;;;;;;;13.07;10.15;;;13.40;99.90;;;;;;5012539;28;20480;-73
2021/09/29 00:34:24;;;;;;;14.75;9.82;;;13.10;99.90;;;;;;5012927;28;20480;-72
2021/09/29 00:36:45;;;;;;;13.60;9.60;;;13.10;99.90;;;;;;5012377;28;20042;-72
2021/09/29 00:39:13;;;;;;;14.40;9.88;;;13.10;99.90;;;;;;5011110;28;20395;-72
2021/09/29 00:41:39;;;;;;;19.83;10.70;;;13.10;99.90;;;;;;5012679;28;20369;-71
2021/09/29 00:44:05;;;;;;;12.73;10.63;;;13.20;99.90;;;;;;5012743;28;20025;-72
2021/09/29 00:46:31;;;;;;;14.98;10.10;;;13.20;99.90;;;;;;5011962;28;20025;-71
2021/09/29 00:48:57;;;;;;;14.57;10.15;;;13.20;99.90;;;;;;5012334;28;20117;-72
2021/09/29 00:51:23;;;;;;;14.50;9.90;;;13.20;99.90;;;;;;5012458;28;20109;-72
2021/09/29 00:53:51;;;;;;;13.05;9.52;;;13.00;99.90;;;;;;5018282;28;20391;-72
2021/09/29 00:56:18;;;;;;;10.30;9.30;;;12.90;99.90;;;;;;5023336;28;20025;-72
2021/09/29 00:58:44;;;;;;;10.35;9.27;;;12.90;99.90;;;;;;5024899;28;20041;-72
2021/09/29 01:01:10;;;;;;;11.10;9.00;;;12.90;99.90;;;;;;5025001;28;20030;-72
2021/09/29 01:03:37;;;;;;;10.65;9.55;;;12.80;99.90;;;;;;5024423;28;20030;-72
2021/09/29 01:06:19;;;;;;;11.77;9.98;;;13.00;99.90;;;;;;5013931;28;20030;-72
2021/09/29 01:08:49;;;;;;;;;;;12.80;99.90;;;;;;5012690;28;20088;-72
2021/09/29 01:11:37;;;;;;;10.27;8.45;;;12.80;99.90;;;;;;5012276;28;19906;-72
2021/09/29 01:14:17;;;;;;;15.13;9.18;;;12.70;99.90;;;;;;5012117;28;20030;-72
2021/09/29 01:16:46;;;;;;;11.43;9.00;;;12.70;99.90;;;;;;5011889;28;20037;-72
2021/09/29 01:19:32;;;;;;;14.52;9.45;;;12.70;99.90;;;;;;5012120;28;20034;-72
2021/09/29 01:22:12;;;;;;;11.90;8.68;;;12.50;99.90;;;;;;5012129;28;20026;-72
2021/09/29 01:24:46;;;;;;;12.88;9.75;;;12.50;99.90;;;;;;5011333;28;20045;-72
2021/09/29 01:27:13;;;;;;;12.20;9.23;;;12.50;99.90;;;;;;5011724;28;20113;-71
2021/09/29 01:29:40;;;;;;;14.15;10.13;;;12.60;99.90;;;;;;5011937;28;20041;-72
2021/09/29 01:32:06;;;;;;;21.05;11.85;;;12.70;99.90;;;;;;5012028;28;20034;-72
2021/09/29 01:34:32;;;;;;;17.38;11.88;;;12.70;99.90;;;;;;5011452;28;20048;-72
2021/09/29 01:36:59;;;;;;;20.77;11.60;;;12.70;99.90;;;;;;5011868;28;20029;-72
2021/09/29 01:39:26;;;;;;;17.33;12.30;;;12.60;99.90;;;;;;5011416;28;20503;-72
2021/09/29 01:41:52;;;;;;;15.90;12.30;;;12.60;99.90;;;;;;5011906;28;20044;-72
2021/09/29 01:44:18;;;;;;;16.23;12.30;;;12.50;99.90;;;;;;5011307;28;20432;-72
2021/09/29 01:46:44;;;;;;;16.98;12.63;;;12.50;99.90;;;;;;5011680;28;20101;-72
2021/09/29 01:49:24;;;;;;;16.48;12.43;;;12.50;99.90;;;;;;5011612;28;20439;-72
2021/09/29 01:51:51;;;;;;;19.42;12.30;;;12.50;99.90;;;;;;5011713;28;20056;-72
2021/09/29 01:54:21;;;;;;;14.77;11.73;;;12.50;99.90;;;;;;5011004;28;20072;-72
2021/09/29 01:56:47;;;;;;;16.55;11.57;;;12.40;99.90;;;;;;5011550;28;20053;-73
2021/09/29 01:59:13;;;;;;;15.63;11.05;;;12.20;99.90;;;;;;5011685;28;20053;-72
2021/09/29 02:01:41;;;;;;;16.20;12.68;;;12.20;99.90;;;;;;5011904;28;20514;-73
2021/09/29 02:04:08;;;;;;;17.65;11.93;;;12.10;99.90;;;;;;5011823;28;20110;-73
2021/09/29 02:06:49;;;;;;;13.52;11.75;;;12.20;99.90;;;;;;5012116;28;20472;-73
2021/09/29 02:09:16;;;;;;;19.48;12.02;;;12.10;99.90;;;;;;5015455;28;20030;-72
2021/09/29 02:11:42;;;;;;;16.88;12.20;;;12.10;99.90;;;;;;5015932;28;20574;-73
2021/09/29 02:14:08;;;;;;;17.02;12.40;;;12.00;99.90;;;;;;5015686;28;20026;-72
2021/09/29 02:16:34;;;;;;;18.25;13.65;;;12.00;99.90;;;;;;5014740;28;20029;-73
2021/09/29 02:19:00;;;;;;;17.10;12.98;;;12.00;99.90;;;;;;5015403;28;20018;-73
2021/09/29 02:21:26;;;;;;;19.42;13.68;;;12.10;99.90;;;;;;5015761;28;20037;-72
2021/09/29 02:23:51;;;;;;;16.38;12.32;;;12.00;99.90;;;;;;5013888;28;20036;-72
2021/09/29 02:26:17;;;;;;;16.33;13.18;;;11.90;99.90;;;;;;5013411;28;20030;-72
2021/09/29 02:28:43;;;;;;;17.45;12.90;;;11.80;99.90;;;;;;5015102;28;20554;-72
2021/09/29 02:31:09;;;;;;;15.18;12.18;;;11.80;99.90;;;;;;5015152;28;20503;-71
2021/09/29 02:33:34;;;;;;;15.10;12.38;;;11.70;99.90;;;;;;5028825;28;20024;-72
2021/09/29 02:36:00;;;;;;;15.73;12.57;;;11.70;99.90;;;;;;5020163;28;20571;-72
2021/09/29 02:38:25;;;;;;;14.60;12.52;;;11.70;99.90;;;;;;5015254;28;20101;-72
2021/09/29 02:40:51;;;;;;;20.42;11.77;;;11.70;99.90;;;;;;5014911;28;20018;-72
2021/09/29 02:43:17;;;;;;;16.80;11.80;;;11.60;99.90;;;;;;5014988;28;20022;-73
2021/09/29 02:45:45;;;;;;;22.88;12.65;;;11.50;99.90;;;;;;5014134;28;20480;-72
2021/09/29 02:48:11;;;;;;;19.45;12.00;;;11.60;99.90;;;;;;5014847;28;20491;-72
2021/09/29 02:50:37;;;;;;;16.23;11.75;;;11.60;99.90;;;;;;5014675;28;20033;-72
2021/09/29 02:53:02;;;;;;;17.60;12.88;;;11.50;99.90;;;;;;5014700;28;20021;-72
2021/09/29 02:55:28;;;;;;;16.95;13.43;;;11.50;99.90;;;;;;5014059;28;20032;-72
2021/09/29 02:57:53;;;;;;;20.75;13.75;;;11.50;99.90;;;;;;5014678;28;20120;-72
2021/09/29 03:00:19;;;;;;;19.33;13.55;;;11.50;99.90;;;;;;5014433;28;20030;-71
2021/09/29 03:02:45;;;;;;;16.13;13.00;;;11.40;99.90;;;;;;5014588;28;20068;-72
2021/09/29 03:05:11;;;;;;;17.90;12.18;;;11.50;99.90;;;;;;5013981;28;20487;-72
2021/09/29 03:07:36;;;;;;;16.90;11.95;;;11.40;99.90;;;;;;5014607;28;20104;-71
2021/09/29 03:10:03;;;;;;;16.58;11.68;;;11.40;99.90;;;;;;5013935;28;20068;-72
2021/09/29 03:12:30;;;;;;;15.90;11.85;;;11.30;99.90;;;;;;5014360;28;20030;-71
2021/09/29 03:14:55;;;;;;;17.10;12.70;;;11.40;99.90;;;;;;5013467;28;20026;-71
2021/09/29 03:17:21;;;;;;;19.25;12.52;;;11.40;99.90;;;;;;5014297;28;20034;-72
2021/09/29 03:19:47;;;;;;;22.10;13.18;;;11.50;99.90;;;;;;5012940;28;20073;-72
2021/09/29 03:22:13;;;;;;;19.40;13.20;;;11.60;99.90;;;;;;5014091;28;20029;-71
2021/09/29 03:24:38;;;;;;;18.10;13.30;;;11.60;99.90;;;;;;5013200;28;20036;-72
2021/09/29 03:27:05;;;;;;;20.85;14.32;;;11.70;99.90;;;;;;5014063;28;20033;-71
2021/09/29 03:29:31;;;;;;;18.35;13.98;;;11.70;99.90;;;;;;5013827;28;20853;-71
2021/09/29 03:31:57;;;;;;;16.65;12.60;;;11.50;99.90;;;;;;5014032;28;20029;-73
2021/09/29 03:34:22;;;;;;;17.27;12.65;;;11.50;99.90;;;;;;5013544;28;20429;-72
2021/09/29 03:36:48;;;;;;;15.73;11.88;;;11.40;99.90;;;;;;5013670;28;20511;-72
2021/09/29 03:39:14;;;;;;;19.10;13.50;;;11.40;99.90;;;;;;5013422;28;20053;-72
2021/09/29 03:41:39;;;;;;;18.40;14.10;;;11.40;99.90;;;;;;5013851;28;20029;-72
2021/09/29 03:44:05;;;;;;;20.20;13.45;;;11.50;99.90;;;;;;5013645;28;20031;-71
2021/09/29 03:46:31;;;;;;;22.92;15.32;;;11.40;99.90;;;;;;5013155;28;20022;-71
2021/09/29 03:48:57;;;;;;;18.05;13.48;;;11.30;99.90;;;;;;5013690;28;20040;-71
2021/09/29 03:51:22;;;;;;;17.65;13.50;;;11.30;99.90;;;;;;5013554;28;20141;-72
2021/09/29 03:53:48;;;;;;;19.30;13.88;;;11.20;99.90;;;;;;5012338;28;20451;-72
2021/09/29 03:56:14;;;;;;;17.52;13.70;;;11.10;99.90;;;;;;5012620;28;20053;-71
2021/09/29 03:58:39;;;;;;;19.17;15.02;;;11.10;99.90;;;;;;5013416;28;20475;-71
2021/09/29 04:01:05;;;;;;;26.42;15.40;;;11.20;99.90;;;;;;5013540;28;20048;-71
2021/09/29 04:03:31;;;;;;;26.15;14.25;;;11.10;99.90;;;;;;5013429;28;20026;-72
2021/09/29 04:05:56;;;;;;;19.00;13.95;;;11.10;99.90;;;;;;5012645;28;20026;-72
2021/09/29 04:08:22;;;;;;;18.08;14.23;;;11.00;99.90;;;;;;5012998;28;20030;-72
2021/09/29 04:10:47;;;;;;;20.98;14.20;;;11.00;99.90;;;;;;5013084;28;20030;-71
2021/09/29 04:13:13;;;;;;;25.33;15.65;;;11.00;99.90;;;;;;5012902;28;20109;-72
2021/09/29 04:15:39;;;;;;;23.52;13.90;;;11.00;99.90;;;;;;5012397;28;20123;-72
2021/09/29 04:18:05;;;;;;;18.90;14.30;;;11.00;99.90;;;;;;5013093;28;20396;-72
2021/09/29 04:20:31;;;;;;;23.25;15.20;;;11.00;99.90;;;;;;5012854;28;20029;-71
2021/09/29 04:22:56;;;;;;;19.55;14.82;;;11.10;99.90;;;;;;5012979;28;20555;-71
2021/09/29 04:25:22;;;;;;;26.42;15.05;;;11.00;99.90;;;;;;5012070;28;20145;-71
2021/09/29 04:27:48;;;;;;;20.38;14.50;;;11.00;99.90;;;;;;5012800;28;20030;-71
2021/09/29 04:30:14;;;;;;;24.50;15.40;;;11.10;99.90;;;;;;5012543;28;20038;-71
2021/09/29 04:32:44;;;;;;;24.17;14.85;;;11.10;99.90;;;;;;5012871;28;20445;-71
2021/09/29 04:35:11;;;;;;;17.83;14.10;;;11.10;99.90;;;;;;5012179;28;20030;-71
2021/09/29 04:37:38;;;;;;;18.30;14.48;;;11.00;99.90;;;;;;5012503;28;20113;-71
2021/09/29 04:40:05;;;;;;;21.15;14.43;;;11.00;99.90;;;;;;5012405;28;20046;-71
2021/09/29 04:42:31;;;;;;;19.00;15.05;;;11.10;99.90;;;;;;5012594;28;20026;-72
2021/09/29 04:44:57;;;;;;;20.80;14.98;;;11.10;99.90;;;;;;5011976;28;20034;-71
2021/09/29 04:47:23;;;;;;;21.05;13.88;;;11.00;99.90;;;;;;5012651;28;20033;-73
2021/09/29 04:49:49;;;;;;;19.52;14.73;;;11.00;99.90;;;;;;5012468;28;20057;-71
2021/09/29 04:52:14;;;;;;;21.52;15.70;;;10.90;99.90;;;;;;5012234;28;20083;-71
2021/09/29 04:54:41;;;;;;;26.83;16.42;;;10.90;99.90;;;;;;5011498;28;20026;-71
2021/09/29 04:57:08;;;;;;;25.02;16.13;;;10.90;99.90;;;;;;5012371;28;20370;-70
2021/09/29 04:59:35;;;;;;;24.48;16.77;;;11.00;99.90;;;;;;5012463;28;20388;-71
2021/09/29 05:02:01;;;;;;;24.05;16.25;;;11.10;99.90;;;;;;5012384;28;20032;-71
2021/09/29 05:04:27;;;;;;;26.73;15.57;;;11.10;99.90;;;;;;5011743;28;20049;-71
2021/09/29 05:06:54;;;;;;;27.92;15.25;;;11.00;99.90;;;;;;5012181;28;20046;-72
2021/09/29 05:09:20;;;;;;;25.92;15.27;;;11.10;99.90;;;;;;5015571;28;20022;-71
2021/09/29 05:11:50;;;;;;;25.08;15.23;;;11.10;99.90;;;;;;5030074;28;20041;-72
2021/09/29 05:14:16;;;;;;;17.30;14.05;;;11.00;99.90;;;;;;5012962;28;20061;-72
2021/09/29 05:16:42;;;;;;;20.20;14.45;;;11.00;99.90;;;;;;5012166;28;20026;-72
2021/09/29 05:19:08;;;;;;;23.42;15.65;;;11.00;99.90;;;;;;5011716;28;20022;-73
2021/09/29 05:21:34;;;;;;;24.85;15.48;;;11.00;99.90;;;;;;5012117;28;20034;-72
2021/09/29 05:24:00;;;;;;;25.80;15.65;;;11.00;99.90;;;;;;5010411;28;20388;-72
2021/09/29 05:26:26;;;;;;;27.38;15.40;;;10.90;99.90;;;;;;5009214;28;20026;-76
2021/09/29 05:28:54;;;;;;;27.23;16.33;;;10.90;99.90;;;;;;5005751;28;20550;-76
2021/09/29 05:31:21;;;;;;;26.42;17.00;;;10.90;99.90;;;;;;5011303;28;20018;-74
2021/09/29 05:33:47;;;;;;;32.58;15.98;;;10.80;99.90;;;;;;5020008;28;20044;-74
2021/09/29 05:36:13;;;;;;;22.08;15.75;;;10.80;99.90;;;;;;5029110;28;20036;-75
2021/09/29 05:38:38;;;;;;;20.63;14.07;;;10.80;99.90;;;;;;5010427;28;20030;-75
2021/09/29 05:41:04;;;;;;;22.33;14.55;;;10.70;99.90;;;;;;5010023;28;20014;-74
2021/09/29 05:43:30;;;;;;;21.92;15.55;;;10.70;99.90;;;;;;5011563;28;20077;-76
2021/09/29 05:45:57;;;;;;;27.13;15.23;;;10.80;99.90;;;;;;5011565;28;20109;-77
2021/09/29 05:48:23;;;;;;;25.40;16.02;;;10.70;99.90;;;;;;5011417;28;20104;-75
2021/09/29 05:50:49;;;;;;;23.17;16.50;;;10.70;99.90;;;;;;5011734;28;20041;-76
2021/09/29 05:53:15;;;;;;;26.23;16.55;;;10.70;99.90;;;;;;5011547;28;20022;-77
2021/09/29 05:55:41;;;;;;;24.17;16.45;;;10.70;99.90;;;;;;5009757;28;20033;-74
2021/09/29 05:58:07;;;;;;;27.75;15.45;;;10.70;99.90;;;;;;5010234;28;20053;-76
2021/09/29 06:00:32;;;;;;;22.55;16.58;;;10.70;99.90;;;;;;5011369;28;20025;-74
2021/09/29 06:02:58;;;;;;;25.50;17.08;;;10.70;99.90;;;;;;5011561;28;20033;-75
2021/09/29 06:05:24;;;;;;;28.23;15.80;;;10.80;99.90;;;;;;5009093;28;20022;-76
2021/09/29 06:07:50;;;;;;;27.23;15.32;;;10.70;99.90;;;;;;5011823;28;20038;-75
2021/09/29 06:10:16;;;;;;;25.80;13.65;;;10.80;99.90;;;;;;5009132;28;20026;-74
2021/09/29 06:12:42;;;;;;;20.08;13.98;;;10.70;99.90;;;;;;5006476;28;20025;-75
2021/09/29 06:15:08;;;;;;;16.38;12.05;;;10.80;99.90;;;;;;5010554;28;20026;-74
2021/09/29 06:17:43;;;;;;;21.90;13.50;;;10.70;99.90;;;;;;5010210;28;20053;-76
2021/09/29 06:20:10;;;;;;;15.55;12.60;;;10.80;99.90;;;;;;5002155;28;20038;-75
2021/09/29 06:22:38;;;;;;;22.13;13.00;;;11.00;99.90;;;;;;5008446;28;20030;-75
2021/09/29 06:25:06;;;;;;;18.17;12.45;;;11.00;99.90;;;;;;4990940;28;20034;-74
2021/09/29 06:27:32;;;;;;;15.73;11.88;;;11.10;99.90;;;;;;4994734;28;20049;-75
2021/09/29 06:29:57;;;;;;;18.80;13.70;;;11.20;99.90;;;;;;5002222;28;20030;-76
2021/09/29 06:32:23;;;;;;;20.90;14.75;;;11.20;99.90;;;;;;4996212;28;20109;-73
2021/09/29 06:34:49;;;;;;;26.20;15.27;;;11.20;99.90;;;;;;4992234;28;20030;-74
2021/09/29 06:37:14;;;;;;;25.52;15.98;;;11.30;99.90;;;;;;5000769;28;20037;-74
2021/09/29 06:39:40;;;;;;;22.70;16.10;;;11.40;99.90;;;;;;5011140;28;20030;-76
2021/09/29 06:42:05;;;;;;;24.65;16.83;;;11.40;99.90;;;;;;5011363;28;20096;-76
2021/09/29 06:44:31;;;;;;;23.38;16.42;;;11.50;99.90;;;;;;5010508;28;20032;-77
2021/09/29 06:46:59;;;;;;;21.77;16.60;;;11.60;99.90;;;;;;5009462;28;20022;-76
2021/09/29 06:49:25;;;;;;;23.50;16.00;;;11.70;99.90;;;;;;5010406;28;20032;-76
2021/09/29 06:51:50;;;;;;;22.80;14.70;;;11.80;99.90;;;;;;5010920;28;20026;-75
2021/09/29 06:54:16;;;;;;;20.92;15.60;;;11.90;99.90;;;;;;5012841;28;20480;-75
2021/09/29 06:56:45;;;;;;;21.80;16.08;;;12.10;99.90;;;;;;5014371;28;20080;-76
2021/09/29 06:59:10;;;;;;;23.90;14.88;;;12.10;99.90;;;;;;5014244;28;20053;-75
2021/09/29 07:01:36;;;;;;;20.67;13.80;;;12.30;99.90;;;;;;5013182;28;20444;-76
2021/09/29 07:04:02;;;;;;;18.70;14.00;;;12.40;99.90;;;;;;5013893;28;20079;-75
2021/09/29 07:06:29;;;;;;;20.80;14.80;;;12.40;99.90;;;;;;5013472;28;20037;-74
2021/09/29 07:08:55;;;;;;;17.17;12.93;;;12.30;99.90;;;;;;5013842;28;20018;-76
2021/09/29 07:11:20;;;;;;;19.92;11.73;;;12.40;99.90;;;;;;5013553;28;20022;-76
2021/09/29 07:13:46;;;;;;;12.73;11.18;;;12.50;99.90;;;;;;5013734;28;20034;-74
2021/09/29 07:16:13;;;;;;;16.73;10.68;;;12.60;99.90;;;;;;5012239;28;20053;-74
2021/09/29 07:18:39;;;;;;;15.00;10.90;;;12.80;99.90;;;;;;5013874;28;20040;-75
2021/09/29 07:21:06;;;;;;;14.32;9.30;;;12.90;99.90;;;;;;5014007;28;20026;-73
2021/09/29 07:23:31;;;;;;;13.45;8.38;;;12.90;99.90;;;;;;5030577;28;20446;-74
2021/09/29 07:25:57;;;;;;;10.52;7.03;;;12.90;99.90;;;;;;5025722;28;20117;-74
2021/09/29 07:28:23;;;;;;;13.43;6.65;;;13.10;99.90;;;;;;4991952;28;20026;-73
2021/09/29 07:30:49;;;;;;;8.10;5.43;;;13.30;99.90;;;;;;5001985;28;20060;-74
2021/09/29 07:33:15;;;;;;;8.63;5.00;;;13.50;99.90;;;;;;5013611;28;20016;-72
2021/09/29 07:35:43;;;;;;;6.25;4.43;;;13.60;99.90;;;;;;5013216;28;20021;-73
2021/09/29 07:38:10;;;;;;;9.02;3.28;;;13.80;99.90;;;;;;5013663;28;20412;-73
2021/09/29 07:40:36;;;;;;;4.32;2.80;;;14.10;99.90;;;;;;5013321;28;20022;-74
2021/09/29 07:43:03;;;;;;;5.25;2.40;;;14.50;99.90;;;;;;5013596;28;20022;-74
2021/09/29 07:45:29;;;;;;;5.45;2.70;;;14.90;99.90;;;;;;4996970;28;20026;-74
2021/09/29 07:47:55;;;;;;;3.17;1.92;;;15.30;99.90;;;;;;4993473;28;20512;-74
2021/09/29 07:50:21;;;;;;;3.10;2.20;;;15.30;99.90;;;;;;5012076;28;20029;-75
2021/09/29 07:52:47;;;;;;;5.90;2.03;;;15.40;99.90;;;;;;5012133;28;20034;-73
2021/09/29 07:55:14;;;;;;;3.33;1.70;;;15.50;99.90;;;;;;5012436;28;20369;-75
2021/09/29 07:57:41;;;;;;;2.80;1.35;;;15.60;99.90;;;;;;5013364;28;20042;-73
2021/09/29 08:00:08;;;;;;;2.00;1.17;;;15.70;99.90;;;;;;5012927;28;20022;-74
2021/09/29 08:02:34;;;;;;;2.17;1.40;;;15.70;99.90;;;;;;5013159;28;20171;-74
2021/09/29 08:05:02;;;;;;;6.53;1.75;;;15.80;99.90;;;;;;5011800;28;20104;-74
2021/09/29 08:07:28;;;;;;;7.68;1.55;;;16.00;99.90;;;;;;5010675;28;20034;-72
2021/09/29 08:09:54;;;;;;;4.95;1.35;;;16.00;99.90;;;;;;5011593;28;20030;-74
2021/09/29 08:12:20;;;;;;;3.33;1.13;;;16.40;99.90;;;;;;5012999;28;20030;-75
2021/09/29 08:14:46;;;;;;;6.40;1.30;;;16.60;99.90;;;;;;5012062;28;20507;-74
2021/09/29 08:17:12;;;;;;;2.28;0.80;;;16.60;99.90;;;;;;5012723;28;20030;-73
2021/09/29 08:19:38;;;;;;;1.70;0.95;;;17.00;99.90;;;;;;5012543;28;20121;-73
2021/09/29 08:22:08;;;;;;;6.30;1.30;;;17.10;99.90;;;;;;5012980;28;20079;-74
2021/09/29 08:25:32;;;;;;;2.58;0.82;;;17.60;99.90;;;;;;5011962;28;20014;-74
2021/09/29 08:27:28;;;;;;;3.25;1.00;;;17.60;99.90;;;;;;5008433;28;20042;-74
2021/09/29 08:30:11;;;;;;;5.60;0.90;;;17.90;99.90;;;;;;5011766;28;20052;-77
2021/09/29 08:37:59;;;;;;;5.40;0.93;;;18.60;99.90;;;;;;5012874;28;20037;-73
2021/09/29 08:40:52;;;;;;;3.08;0.85;;;18.80;99.90;;;;;;5012552;28;20532;-73
2021/09/29 08:43:28;;;;;;;5.85;0.90;;;18.60;99.90;;;;;;5012279;28;20435;-73
2021/09/29 08:46:09;;;;;;;1.67;0.90;;;18.60;99.90;;;;;;5010439;28;20392;-73
2021/09/29 08:54:09;;;;;;;2.40;1.00;;;20.60;99.90;;;;;;5027126;28;20022;-74
2021/09/29 09:15:52;;;;;;;4.50;0.82;;;22.10;99.00;;;;;;5011200;28;20061;-72
2021/09/29 09:18:18;;;;;;;2.28;0.68;;;22.30;99.80;;;;;;5011675;28;20057;-74
2021/09/29 09:21:01;;;;;;;3.08;0.70;;;22.60;99.80;;;;;;5012171;28;20042;-72
2021/09/29 09:23:38;;;;;;;1.25;0.68;;;22.10;99.20;;;;;;5029403;28;20024;-72
2021/09/29 09:26:16;;;;;;;3.53;0.88;;;20.90;99.90;;;;;;5030933;28;20025;-73
2021/09/29 09:28:43;;;;;;;2.20;0.85;;;21.10;99.80;;;;;;5024928;28;20040;-72
2021/09/29 09:31:14;;;;;;;3.72;0.73;;;21.80;99.40;;;;;;5011986;28;20452;-73
2021/09/29 09:33:59;;;;;;;3.45;0.60;;;20.50;99.90;;;;;;5009776;28;20026;-73
2021/09/29 09:36:35;;;;;;;2.08;0.68;;;21.50;99.90;;;;;;5010775;28;20080;-75
2021/09/29 09:39:26;;;;;;;1.30;0.88;;;22.70;98.40;;;;;;5009006;28;20483;-72
2021/09/29 09:41:56;;;;;;;2.15;0.88;;;22.60;98.70;;;;;;5011565;28;20034;-74
2021/09/29 09:44:27;;;;;;;2.42;1.00;;;22.20;97.60;;;;;;5009579;28;20030;-75
2021/09/29 09:47:05;;;;;;;2.28;0.95;;;21.00;99.40;;;;;;5011624;28;20034;-72
2021/09/29 09:49:42;;;;;;;7.00;1.10;;;20.30;99.90;;;;;;5011464;28;20128;-75
2021/09/29 09:52:10;;;;;;;3.65;0.98;;;20.10;99.90;;;;;;5011733;28;20407;-75
2021/09/29 09:54:38;;;;;;;1.15;0.85;;;19.60;99.90;;;;;;5011039;28;20037;-73
2021/09/29 09:57:18;;;;;;;3.95;0.77;;;19.60;99.90;;;;;;5012918;28;20022;-74
2021/09/29 09:59:49;;;;;;;4.15;1.55;;;19.60;99.90;;;;;;5004393;28;20114;-75
2021/09/29 10:02:15;;;;;;;2.38;0.80;;;19.20;99.90;;;;;;4995106;28;20743;-73
2021/09/29 10:04:41;;;;;;;6.28;0.77;;;19.50;99.90;;;;;;4996102;28;20097;-73
2021/09/29 10:07:07;;;;;;;4.22;1.15;;;20.50;99.90;;;;;;4999942;28;20040;-71
2021/09/29 10:09:53;;;;;;;1.67;0.60;;;21.10;99.50;;;;;;4994056;28;20114;-75
2021/09/29 10:23:53;;;;;;;2.78;0.75;;;21.80;95.20;;;;;;5011623;28;20428;-73
2021/09/29 10:26:12;;;;;;;2.97;0.75;;;21.10;96.30;;;;;;5007450;28;20065;-73
2021/09/29 10:28:40;;;;;;;1.58;0.80;;;21.00;97.40;;;;;;5013236;28;20014;-73
2021/09/29 10:34:21;;;;;;;3.28;1.20;;;20.90;95.90;;;;;;5015449;28;20036;-73
2021/09/29 10:37:24;;;;;;;2.58;0.70;;;20.70;96.40;;;;;;5014834;28;20365;-73
2021/09/29 10:42:52;;;;;;;1.45;0.50;;;19.80;97.00;;;;;;5015094;28;20049;-73
2021/09/29 10:45:54;;;;;;;3.78;1.20;;;19.40;99.00;;;;;;5014357;28;20018;-74
2021/09/29 10:49:09;;;;;;;4.47;0.90;;;19.70;98.40;;;;;;5015027;28;20034;-73
2021/09/29 11:11:15;;;;;;;2.15;0.60;;;21.30;94.90;;;;;;5013412;28;20492;-73
2021/09/29 11:30:28;;;;;;;5.90;0.70;;;21.60;94.00;;;;;;5014185;28;20033;-72
2021/09/29 11:33:05;;;;;;;4.03;0.90;;;23.00;93.40;;;;;;5012577;28;20033;-72
2021/09/29 12:08:16;;;;;;;7.28;1.00;;;21.80;93.90;;;;;;4996064;28;20396;-77
2021/09/29 12:11:02;;;;;;;1.42;0.50;;;21.40;93.60;;;;;;5012795;28;20100;-75
2021/09/29 12:13:45;;;;;;;2.80;0.57;;;21.40;94.60;;;;;;5014747;28;20018;-76
2021/09/29 12:16:11;;;;;;;;;;;21.10;95.10;;;;;;5010243;28;20022;-75
2021/09/29 12:18:37;;;;;;;1.50;0.40;;;21.70;94.50;;;;;;5029685;22;19972;-77
2021/09/29 12:21:03;;;;;;;3.08;0.80;;;22.30;93.80;;;;;;4964384;28;20513;-77
2021/09/29 12:23:29;;;;;;;1.70;0.70;;;23.40;92.60;;;;;;4961349;28;20015;-78
2021/09/29 12:29:17;;;;;;;1.98;0.60;;;24.90;88.90;;;;;;4933994;28;20031;-78
2021/09/29 12:34:34;;;;;;;2.47;0.60;;;23.70;90.70;;;;;;4959282;28;20105;-79
2021/09/29 12:37:10;;;;;;;1.88;0.80;;;24.60;88.70;;;;;;4971592;28;20027;-79
2021/09/29 12:39:38;;;;;;;5.00;0.80;;;23.20;90.00;;;;;;4974745;28;20023;-79
2021/09/29 12:42:04;;;;;;;3.47;1.00;;;22.90;90.90;;;;;;4975987;28;20018;-79
2021/09/29 12:44:30;;;;;;;5.45;0.57;;;23.30;88.80;;;;;;4979637;28;20146;-78
2021/09/29 12:49:35;;;;;;;1.80;0.57;;;22.90;90.90;;;;;;4971229;28;20102;-78
2021/09/29 12:52:12;;;;;;;5.78;0.70;;;23.90;90.30;;;;;;4973242;28;20101;-78
2021/09/29 12:54:43;;;;;;;2.40;0.80;;;24.70;86.70;;;;;;4971128;28;20118;-78
2021/09/29 12:57:09;;;;;;;2.92;0.60;;;25.20;85.00;;;;;;4974590;28;20026;-78
2021/09/29 12:59:35;;;;;;;5.10;0.85;;;24.80;87.30;;;;;;4975228;28;20026;-78
2021/09/29 13:02:00;;;;;;;1.85;0.52;;;25.10;85.30;;;;;;4974978;28;20393;-79
2021/09/29 13:04:26;;;;;;;4.03;0.82;;;25.80;84.80;;;;;;4972989;28;20109;-78
2021/09/29 13:06:52;;;;;;;1.35;0.55;;;24.50;86.90;;;;;;4972981;28;20432;-78
2021/09/29 13:09:17;;;;;;;4.60;0.80;;;22.80;90.50;;;;;;4972849;28;20453;-78
2021/09/29 13:11:43;;;;;;;1.75;0.70;;;22.50;91.60;;;;;;4974989;28;20488;-78
2021/09/29 13:14:09;;;;;;;5.78;0.70;;;22.00;92.90;;;;;;4976043;28;20022;-77
2021/09/29 13:16:34;;;;;;;1.98;0.75;;;21.60;93.20;;;;;;4973643;28;20059;-80
2021/09/29 13:19:04;;;;;;;3.92;0.82;;;21.60;96.10;;;;;;4972796;28;20030;-78
2021/09/29 13:21:38;;;;;;;2.45;0.68;;;21.60;96.60;;;;;;4970449;28;20023;-77
2021/09/29 13:37:27;;;;;;;7.70;1.15;;;20.80;95.90;;;;;;4972377;28;20038;-79
2021/09/29 13:39:52;;;;;;;3.80;0.80;;;20.80;96.50;;;;;;4978455;28;20019;-78
2021/09/29 13:42:19;;;;;;;4.32;0.98;;;20.70;96.60;;;;;;4983766;28;20396;-77
2021/09/29 13:44:44;;;;;;;4.88;0.75;;;20.50;96.40;;;;;;4978883;28;20024;-78
2021/09/29 13:47:10;;;;;;;1.85;0.70;;;20.60;96.00;;;;;;4981052;28;20046;-78
2021/09/29 13:49:36;;;;;;;7.53;1.13;;;20.90;97.70;;;;;;4977549;28;20109;-79
2021/09/29 13:52:02;;;;;;;2.03;0.60;;;21.10;99.80;;;;;;4974168;28;20019;-78
2021/09/29 13:54:28;;;;;;;3.28;0.88;;;20.60;99.90;;;;;;4972484;28;20031;-77
2021/09/29 13:57:00;;;;;;;2.33;0.65;;;20.40;99.90;;;;;;4973285;28;20605;-78
2021/09/29 13:59:51;;;;;;;4.88;0.90;;;20.20;99.90;;;;;;4972909;28;20054;-77
2021/09/29 14:29:21;;;;;;;2.40;0.70;;;17.40;99.90;;;;;;4957287;28;20033;-78
2021/09/29 14:34:22;;;;;;;3.42;0.80;;;16.50;99.90;;;;;;4956328;28;20035;-77
2021/09/29 14:36:47;;;;;;;5.03;0.90;;;16.20;99.90;;;;;;4955723;28;20061;-78
2021/09/29 14:39:14;;;;;;;2.58;0.70;;;15.70;99.90;;;;;;4957027;28;20046;-77
2021/09/29 14:41:40;;;;;;;2.47;0.50;;;15.50;99.90;;;;;;4957266;28;20039;-77
2021/09/29 14:44:06;;;;;;;1.38;0.63;;;15.50;99.90;;;;;;4956941;28;20083;-77
2021/09/29 14:46:32;;;;;;;0.88;0.43;;;15.50;99.90;;;;;;4955914;28;20024;-77
2021/09/29 14:48:57;;;;;;;3.08;0.80;;;15.70;99.90;;;;;;4958534;28;20500;-77
2021/09/29 14:51:23;;;;;;;2.15;0.68;;;15.60;99.90;;;;;;4976066;28;20019;-78
2021/09/29 14:53:49;;;;;;;1.20;0.50;;;15.40;99.90;;;;;;4975874;28;20049;-77
2021/09/29 14:56:17;;;;;;;1.13;0.40;;;15.30;99.90;;;;;;4974024;28;20060;-78
2021/09/29 14:58:43;;;;;;;1.83;1.73;;;15.00;99.90;;;;;;4975917;28;20573;-78
2021/09/29 15:01:09;;;;;;;0.65;0.50;;;14.80;99.90;;;;;;4975746;28;20042;-77
2021/09/29 15:03:36;;;;;;;2.28;0.50;;;14.80;99.90;;;;;;4975982;28;20030;-77
2021/09/29 15:06:03;;;;;;;1.55;0.50;;;14.70;99.90;;;;;;4974896;28;20545;-77
2021/09/29 15:08:30;;;;;;;1.15;0.52;;;14.70;99.90;;;;;;4976003;28;20043;-77
2021/09/29 15:10:56;;;;;;;0.32;0.30;;;14.80;99.90;;;;;;4974578;28;20026;-79
2021/09/29 15:13:30;;;;;;;0.52;0.30;;;14.60;99.90;;;;;;4976235;28;20031;-78
2021/09/29 15:16:06;;;;;;;0.32;0.32;;;14.50;99.90;;;;;;4978432;28;20034;-77
2021/09/29 15:19:02;;;;;;;0.20;0.20;;;14.50;99.90;;;;;;4980139;28;20081;-77
2021/09/29 15:21:27;;;;;;;0.40;0.35;;;14.40;99.90;;;;;;4974884;28;20031;-78
2021/09/29 15:49:07;;;;;;;0.63;0.30;;;14.90;99.90;;;;;;4934300;29;20028;-77
2021/09/29 15:51:47;;;;;;;0.30;0.30;;;14.90;99.90;;;;;;4944643;28;20051;-77
2021/09/29 15:54:19;;;;;;;1.00;0.40;;;15.10;99.90;;;;;;4955849;28;20482;-76
2021/09/29 16:10:32;;;;;;;1.60;0.43;;;14.40;99.90;;;;;;4957341;28;20078;-78
2021/09/29 16:36:13;;;;;;;12.38;8.05;;;14.90;99.90;;;;;;4988712;28;20111;-81